The latest weather and runway conditions for major airports within the Toronto FIR.

CYYZ - Toronto-Lester B. Pearson International
CYYZ 151600Z 11012G22KT 15SM FEW028 OVC150 00/M07 A3028 RMK CU2AS6 SLP265
Suggested Runways: Departures: 06L, Arrivals: 05
CYOW - Ottawa Macdonald-Cartier International
CYOW 151600Z 11007KT 15SM OVC160 M08/M13 A3052 RMK AC8 SLP345
Suggested Runway: 14
CYTZ - Billy Bishop Toronto City
CYTZ 151600Z AUTO 11013G20KT 9SM CLR 01/M06 A3031 RMK SLP269
Suggested Runway: 08
CYXU - London International
CYXU 151600Z 10013KT 15SM OVC100 M01/M05 A3020 RMK AS8 SLP241
Suggested Runway: 15
CYHM - John C. Munro Hamilton International
CYHM 151600Z 09010KT 15SM FEW030 OVC110 M02/M07 A3026 RMK SC1AC8 SC TR SLP259
Suggested Runway: 12
CYKF - Region of Waterloo International
CYKF 151600Z AUTO 11013KT 9SM OVC120 M02/M06 A3023 RMK SLP255
Suggested Runway: 08
CYAM - Sault Ste. Marie
CYAM 151600Z 14008G21KT 120V190 25SM FEW021 FEW180 FEW260 M01/M06 A3016 RMK CU1AC1CI1 CU TR CI TR CONTRAILS SLP225
Suggested Runway: 12
CYTR - Canadian Forces Base Trenton
CYTR 151600Z 08007KT 15SM SCT028 OVC090 M02/M07 A3040 RMK SC3AC5 SLP302
Suggested Runway: 06
CYKZ - Toronto/Buttonville Municipal
CYKZ 151600Z 12014KT 15SM FEW022 OVC160 M00/M06 A3029 RMK CF2AS6 SLP270
Suggested Runway: 15
CYOO - Toronto/Oshawa Executive
CYOO 151600Z AUTO 09009KT 9SM BKN023 M01/M05 A3032 RMK SLP278
Suggested Runway: 12

Toronto FIR NOTAMS